createdAt,value
2018-01-21T00:02:11.155Z,100645.67
2018-01-21T00:04:37.291Z,100646.03
2018-01-21T00:07:03.447Z,100655.89
2018-01-21T00:09:29.632Z,100661.36
2018-01-21T00:11:55.865Z,100664.19
2018-01-21T00:14:22.119Z,100679.64
2018-01-21T00:16:48.369Z,100683.36
2018-01-21T00:19:14.550Z,100689.69
2018-01-21T00:21:40.680Z,100693.86
2018-01-21T00:24:06.910Z,100703.68
2018-01-21T00:26:33.079Z,100709.22
2018-01-21T00:28:59.216Z,100711.82
2018-01-21T00:31:25.404Z,100714.42
2018-01-21T00:33:51.598Z,100723.48
2018-01-21T00:36:17.751Z,100731.81
2018-01-21T00:38:43.925Z,100738.83
2018-01-21T00:41:10.159Z,100746.39
2018-01-21T00:43:36.364Z,100750.50
2018-01-21T00:46:02.608Z,100758.90
2018-01-21T00:48:28.767Z,100761.08
2018-01-21T00:50:54.938Z,100765.79
2018-01-21T00:53:21.165Z,100768.70
2018-01-21T00:55:47.315Z,100766.80
2018-01-21T00:58:13.474Z,100777.50
2018-01-21T01:00:39.752Z,100785.13
2018-01-21T01:03:05.945Z,100782.02
2018-01-21T01:05:32.089Z,100782.78
2018-01-21T01:07:58.218Z,100791.77
2018-01-21T01:10:24.489Z,100805.28
2018-01-21T01:12:50.703Z,100807.86
2018-01-21T01:15:16.921Z,100806.52
2018-01-21T01:17:43.103Z,100813.31
2018-01-21T01:20:09.300Z,100822.72
2018-01-21T01:22:35.684Z,100826.08
2018-01-21T01:25:01.838Z,100829.08
2018-01-21T01:27:27.996Z,100839.08
2018-01-21T01:29:54.139Z,100846.02
2018-01-21T01:32:26.604Z,100849.88
2018-01-21T01:34:52.785Z,100853.70
2018-01-21T01:37:18.920Z,100861.42
2018-01-21T01:39:45.316Z,100867.91
2018-01-21T01:42:11.584Z,100866.13
2018-01-21T01:44:37.757Z,100865.68
2018-01-21T01:47:03.887Z,100869.95
2018-01-21T01:49:30.071Z,100875.12
2018-01-21T01:51:56.361Z,100880.37
2018-01-21T01:54:22.555Z,100891.19
2018-01-21T01:56:48.808Z,100895.52
2018-01-21T01:59:14.981Z,100906.40
2018-01-21T02:01:41.117Z,100905.17
2018-01-21T02:04:07.376Z,100910.41
2018-01-21T02:06:33.529Z,100914.28
2018-01-21T02:08:59.748Z,100918.98
2018-01-21T02:11:25.955Z,100921.42
2018-01-21T02:13:52.257Z,100916.50
2018-01-21T02:16:18.425Z,100922.47
2018-01-21T02:18:44.572Z,100927.11
2018-01-21T02:21:10.769Z,100923.94
2018-01-21T02:23:36.969Z,100924.25
2018-01-21T02:26:03.092Z,100924.53
2018-01-21T02:28:29.285Z,100926.28
2018-01-21T02:30:55.481Z,100929.77
2018-01-21T02:33:21.691Z,100925.95
2018-01-21T02:35:47.993Z,100931.58
2018-01-21T02:38:14.147Z,100932.40
2018-01-21T02:40:40.366Z,100932.63
2018-01-21T02:43:06.575Z,100944.11
2018-01-21T02:45:32.730Z,100948.44
2018-01-21T02:47:58.937Z,100961.73
2018-01-21T02:50:25.104Z,100961.73
2018-01-21T02:52:51.340Z,100977.20
2018-01-21T02:55:17.505Z,100980.07
2018-01-21T02:57:43.636Z,100988.47
2018-01-21T03:00:09.779Z,100992.33
2018-01-21T03:02:35.973Z,100989.66
2018-01-21T03:05:02.220Z,100994.88
2018-01-21T03:07:28.409Z,101000.77
2018-01-21T03:09:54.621Z,101008.08
2018-01-21T03:12:20.819Z,101007.60
2018-01-21T03:14:47.037Z,101007.98
2018-01-21T03:17:13.186Z,101012.25
2018-01-21T03:19:39.400Z,101007.86
2018-01-21T03:22:05.554Z,101008.61
2018-01-21T03:24:31.769Z,101017.53
2018-01-21T03:26:57.899Z,101032.91
2018-01-21T03:29:24.047Z,101037.34
2018-01-21T03:31:50.232Z,101045.88
2018-01-21T03:34:16.473Z,101048.86
2018-01-21T03:36:42.620Z,101047.20
2018-01-21T03:39:08.786Z,101049.50
2018-01-21T03:41:35.156Z,101056.48
2018-01-21T03:44:01.480Z,101059.28
2018-01-21T03:46:27.636Z,101065.97
2018-01-21T03:48:53.783Z,101060.06
2018-01-21T03:51:19.968Z,101064.54
2018-01-21T03:53:46.180Z,101065.02
2018-01-21T03:56:12.340Z,101069.28
2018-01-21T03:58:38.494Z,101072.00
2018-01-21T04:01:04.682Z,101069.81
2018-01-21T04:03:31.398Z,101068.91
2018-01-21T04:05:57.588Z,101075.41
2018-01-21T04:08:23.745Z,101074.14
2018-01-21T04:10:49.919Z,101088.72
2018-01-21T04:13:16.165Z,101093.87
2018-01-21T04:15:42.338Z,101102.01
2018-01-21T04:18:08.474Z,101099.72
2018-01-21T04:20:34.678Z,101096.14
2018-01-21T04:23:00.932Z,101099.91
2018-01-21T04:25:28.417Z,101107.20
2018-01-21T04:27:54.612Z,101108.78
2018-01-21T04:30:20.771Z,101112.86
2018-01-21T04:32:46.985Z,101122.49
2018-01-21T04:35:13.165Z,101123.97
2018-01-21T04:37:39.324Z,101119.83
2018-01-21T04:40:05.589Z,101129.95
2018-01-21T04:42:31.731Z,101131.10
2018-01-21T04:44:57.920Z,101133.49
2018-01-21T04:47:24.067Z,101137.22
2018-01-21T04:49:50.204Z,101144.97
2018-01-21T04:52:16.392Z,101148.84
2018-01-21T04:54:42.625Z,101148.14
2018-01-21T04:57:08.745Z,101150.97
2018-01-21T04:59:34.928Z,101159.41
2018-01-21T05:02:01.112Z,101159.65
2018-01-21T05:04:27.303Z,101154.34
2018-01-21T05:06:53.446Z,101170.80
2018-01-21T05:09:19.591Z,101176.19
2018-01-21T05:11:45.803Z,101178.92
2018-01-21T05:14:12.065Z,101185.92
2018-01-21T05:16:38.269Z,101186.92
2018-01-21T05:19:04.417Z,101193.13
2018-01-21T05:21:30.642Z,101197.16
2018-01-21T05:23:56.857Z,101204.61
2018-01-21T05:26:23.033Z,101204.78
2018-01-21T05:28:49.235Z,101209.78
2018-01-21T05:31:15.395Z,101206.13
2018-01-21T05:33:41.604Z,101209.92
2018-01-21T05:36:07.767Z,101202.50
2018-01-21T05:38:33.918Z,101208.06
2018-01-21T05:41:00.094Z,101212.78
2018-01-21T05:43:26.308Z,101208.86
2018-01-21T05:45:52.480Z,101215.37
2018-01-21T05:48:18.657Z,101218.02
2018-01-21T05:50:44.837Z,101216.34
2018-01-21T05:53:10.969Z,101219.81
2018-01-21T05:55:37.217Z,101225.02
2018-01-21T05:58:03.492Z,101218.97
2018-01-21T06:00:29.664Z,101225.05
2018-01-21T06:02:59.769Z,101228.96
2018-01-21T06:05:26.060Z,101226.29
2018-01-21T06:07:52.229Z,101228.41
2018-01-21T06:10:18.405Z,101230.56
2018-01-21T06:12:44.571Z,101234.06
2018-01-21T06:15:10.793Z,101246.67
2018-01-21T06:17:36.932Z,101245.32
2018-01-21T06:20:03.158Z,101254.89
2018-01-21T06:22:29.294Z,101252.84
2018-01-21T06:24:55.496Z,101255.57
2018-01-21T06:27:21.692Z,101261.31
2018-01-21T06:29:48.902Z,101262.22
2018-01-21T06:32:15.071Z,101267.93
2018-01-21T06:34:41.315Z,101264.94
2018-01-21T06:37:07.487Z,101273.62
2018-01-21T06:39:33.653Z,101274.92
2018-01-21T06:41:59.851Z,101278.77
2018-01-21T06:44:26.691Z,101292.17
2018-01-21T06:46:52.845Z,101292.62
2018-01-21T06:49:19.026Z,101300.07
2018-01-21T06:51:45.172Z,101299.81
2018-01-21T06:54:11.368Z,101313.00
2018-01-21T06:56:37.581Z,101326.17
2018-01-21T06:59:03.790Z,101323.41
2018-01-21T07:01:29.939Z,101326.22
2018-01-21T07:03:57.666Z,101333.41
2018-01-21T07:06:23.861Z,101330.56
2018-01-21T07:08:50.606Z,101330.61
2018-01-21T07:11:16.861Z,101336.66
2018-01-21T07:13:43.054Z,101336.16
2018-01-21T07:16:09.197Z,101321.90
2018-01-21T07:18:35.367Z,101324.08
2018-01-21T07:21:01.630Z,101327.59
2018-01-21T07:23:27.792Z,101339.74
2018-01-21T07:25:54.244Z,101339.72
2018-01-21T07:28:20.444Z,101335.77
2018-01-21T07:30:46.566Z,101335.72
2018-01-21T07:33:12.729Z,101343.41
2018-01-21T07:35:38.964Z,101355.02
2018-01-21T07:38:05.128Z,101362.74
2018-01-21T07:40:31.322Z,101367.45
2018-01-21T07:42:58.339Z,101370.92
2018-01-21T07:45:24.606Z,101366.27
2018-01-21T07:47:50.769Z,101366.80
2018-01-21T07:50:16.986Z,101366.94
2018-01-21T07:52:43.156Z,101372.27
2018-01-21T07:55:09.360Z,101367.23
2018-01-21T07:57:35.648Z,101369.61
2018-01-21T08:00:03.341Z,101370.25
2018-01-21T08:02:29.662Z,101379.13
2018-01-21T08:04:57.826Z,101374.55
2018-01-21T08:07:24.003Z,101374.23
2018-01-21T08:09:50.168Z,101382.23
2018-01-21T08:12:16.354Z,101382.39
2018-01-21T08:14:42.560Z,101385.25
2018-01-21T08:17:08.694Z,101389.80
2018-01-21T08:19:34.836Z,101393.89
2018-01-21T08:22:01.021Z,101395.29
2018-01-21T08:24:27.253Z,101396.21
2018-01-21T08:26:54.660Z,101397.17
2018-01-21T08:29:20.850Z,101394.22
2018-01-21T08:31:47.042Z,101408.16
2018-01-21T08:34:19.195Z,101407.78
2018-01-21T08:36:54.452Z,101403.58
2018-01-21T08:42:25.095Z,101412.26
2018-01-21T08:44:51.983Z,101411.36
2018-01-21T08:47:18.162Z,101413.24
2018-01-21T08:49:44.319Z,101421.47
2018-01-21T08:52:10.494Z,101423.78
2018-01-21T08:54:36.737Z,101426.94
2018-01-21T08:57:02.942Z,101422.64
2018-01-21T08:59:31.957Z,101417.10
2018-01-21T09:01:58.146Z,101435.36
2018-01-21T09:04:24.350Z,101436.70
2018-01-21T09:06:50.545Z,101445.37
2018-01-21T09:09:16.715Z,101450.27
2018-01-21T09:11:42.935Z,101452.62
2018-01-21T09:14:09.161Z,101454.58
2018-01-21T09:16:35.340Z,101458.20
2018-01-21T09:19:01.525Z,101453.19
2018-01-21T09:21:27.842Z,101446.09
2018-01-21T09:23:54.046Z,101455.31
2018-01-21T09:26:20.302Z,101454.02
2018-01-21T09:28:46.485Z,101455.14
2018-01-21T09:31:12.667Z,101446.67
2018-01-21T09:33:38.930Z,101451.69
2018-01-21T09:36:05.159Z,101456.03
2018-01-21T09:38:31.322Z,101458.28
2018-01-21T09:40:57.535Z,101455.40
2018-01-21T09:43:23.804Z,101460.68
2018-01-21T09:45:50.194Z,101467.13
2018-01-21T09:48:16.355Z,101468.08
2018-01-21T09:50:42.555Z,101467.25
2018-01-21T09:53:08.726Z,101478.09
2018-01-21T09:55:34.994Z,101478.13
2018-01-21T09:58:01.420Z,101483.82
2018-01-21T10:00:27.698Z,101486.16
2018-01-21T10:02:53.866Z,101479.33
2018-01-21T10:05:20.077Z,101472.55
2018-01-21T10:07:46.333Z,101470.14
2018-01-21T10:10:12.557Z,101475.04
2018-01-21T10:12:38.708Z,101477.78
2018-01-21T10:15:04.961Z,101467.94
2018-01-21T10:17:31.164Z,101464.28
2018-01-21T10:19:57.296Z,101476.55
2018-01-21T10:22:23.478Z,101469.75
2018-01-21T10:24:49.667Z,101471.19
2018-01-21T10:27:15.807Z,101483.16
2018-01-21T10:29:42.008Z,101479.77
2018-01-21T10:32:08.160Z,101490.72
2018-01-21T10:34:34.411Z,101491.27
2018-01-21T10:37:00.636Z,101492.78
2018-01-21T10:39:26.843Z,101500.72
2018-01-21T10:41:53.076Z,101506.98
2018-01-21T10:44:19.271Z,101491.03
2018-01-21T10:46:45.430Z,101486.80
2018-01-21T10:49:11.646Z,101477.35
2018-01-21T10:51:37.914Z,101475.68
2018-01-21T10:54:04.176Z,101471.98
2018-01-21T10:56:30.347Z,101470.84
2018-01-21T10:58:56.603Z,101467.63
2018-01-21T11:01:22.912Z,101461.26
2018-01-21T11:03:49.097Z,101452.82
2018-01-21T11:06:15.398Z,101448.18
2018-01-21T11:08:41.572Z,101447.05
2018-01-21T11:11:07.724Z,101447.58
2018-01-21T11:13:34.505Z,101442.31
2018-01-21T11:16:00.730Z,101433.61
2018-01-21T11:18:26.969Z,101436.73
2018-01-21T11:20:53.158Z,101435.75
2018-01-21T11:23:19.370Z,101437.33
2018-01-21T11:25:45.522Z,101433.56
2018-01-21T11:28:11.708Z,101427.16
2018-01-21T11:30:37.957Z,101428.84
2018-01-21T11:33:04.189Z,101425.40
2018-01-21T11:35:30.416Z,101419.38
2018-01-21T11:37:56.595Z,101415.86
2018-01-21T11:40:22.771Z,101409.66
2018-01-21T11:42:49.029Z,101412.22
2018-01-21T11:45:15.292Z,101416.25
2018-01-21T11:47:41.479Z,101412.39
2018-01-21T11:50:08.197Z,101414.62
2018-01-21T11:52:34.416Z,101411.16
2018-01-21T11:55:01.814Z,101420.30
2018-01-21T11:57:28.046Z,101427.38
2018-01-21T11:59:54.441Z,101423.45
2018-01-21T12:02:20.672Z,101426.87
2018-01-21T12:04:46.872Z,101421.33
2018-01-21T12:07:13.065Z,101419.21
2018-01-21T12:09:39.235Z,101413.22
2018-01-21T12:12:05.492Z,101422.56
2018-01-21T12:14:31.720Z,101419.58
2018-01-21T12:16:57.891Z,101422.19
2018-01-21T12:19:24.243Z,101417.78
2018-01-21T12:21:50.519Z,101417.30
2018-01-21T12:24:16.690Z,101416.34
2018-01-21T12:26:42.866Z,101413.77
2018-01-21T12:29:09.103Z,101416.09
2018-01-21T12:31:35.286Z,101415.21
2018-01-21T12:34:01.634Z,101416.23
2018-01-21T12:36:27.805Z,101412.42
2018-01-21T12:38:54.038Z,101408.62
2018-01-21T12:41:20.265Z,101398.52
2018-01-21T12:43:46.533Z,101401.12
2018-01-21T12:46:12.748Z,101400.27
2018-01-21T12:48:40.170Z,101399.61
2018-01-21T12:51:06.383Z,101397.88
2018-01-21T12:53:32.603Z,101391.41
2018-01-21T12:55:58.836Z,101383.17
2018-01-21T12:58:25.041Z,101380.07
2018-01-21T13:00:51.252Z,101382.41
2018-01-21T13:03:17.633Z,101380.16
2018-01-21T13:05:43.781Z,101382.64
2018-01-21T13:08:10.072Z,101375.23
2018-01-21T13:10:38.425Z,101369.80
2018-01-21T13:13:04.679Z,101365.00
2018-01-21T13:15:30.916Z,101361.58
2018-01-21T13:17:57.137Z,101363.20
2018-01-21T13:20:23.414Z,101355.45
2018-01-21T13:22:49.683Z,101353.62
2018-01-21T13:25:15.893Z,101350.92
2018-01-21T13:27:43.086Z,101354.78
2018-01-21T13:30:09.332Z,101347.20
2018-01-21T13:32:37.572Z,101354.44
2018-01-21T13:35:03.756Z,101344.88
2018-01-21T13:37:29.958Z,101340.97
2018-01-21T13:39:56.189Z,101348.73
2018-01-21T13:42:22.460Z,101352.64
2018-01-21T13:44:48.797Z,101352.53
2018-01-21T13:47:15.007Z,101355.94
2018-01-21T13:49:41.288Z,101349.77
2018-01-21T13:52:07.496Z,101350.05
2018-01-21T13:54:33.757Z,101342.67
2018-01-21T13:56:59.983Z,101345.55
2018-01-21T13:59:26.219Z,101334.41
2018-01-21T14:01:52.504Z,101339.03
2018-01-21T14:04:18.924Z,101344.05
2018-01-21T14:06:45.135Z,101340.61
2018-01-21T14:09:11.386Z,101336.54
2018-01-21T14:11:37.724Z,101346.22
2018-01-21T14:14:03.993Z,101347.62
2018-01-21T14:16:30.988Z,101342.37
2018-01-21T14:18:57.200Z,101349.75
2018-01-21T14:21:23.388Z,101358.66
2018-01-21T14:23:49.616Z,101361.38
2018-01-21T14:26:15.820Z,101350.89
2018-01-21T14:28:41.992Z,101345.16
2018-01-21T14:31:08.192Z,101347.18
2018-01-21T14:33:34.471Z,101334.13
2018-01-21T14:36:00.640Z,101327.95
2018-01-21T14:38:26.882Z,101330.52
2018-01-21T14:40:53.088Z,101329.16
2018-01-21T14:43:19.687Z,101326.86
2018-01-21T14:45:45.913Z,101323.14
2018-01-21T14:48:12.152Z,101320.44
2018-01-21T14:50:38.314Z,101309.42
2018-01-21T14:53:04.637Z,101294.24
2018-01-21T14:55:30.907Z,101286.75
2018-01-21T14:57:57.163Z,101290.53
2018-01-21T15:00:23.392Z,101285.24
2018-01-21T15:02:49.665Z,101282.64
2018-01-21T15:05:15.936Z,101286.41
2018-01-21T15:07:42.195Z,101294.08
2018-01-21T15:10:08.413Z,101289.28
2018-01-21T15:12:34.707Z,101290.54
2018-01-21T15:15:00.953Z,101299.66
2018-01-21T15:17:27.132Z,101292.19
2018-01-21T15:19:53.397Z,101282.98
2018-01-21T15:22:19.605Z,101276.01
2018-01-21T15:24:45.897Z,101270.01
2018-01-21T15:27:12.134Z,101263.94
2018-01-21T15:29:38.515Z,101263.78
2018-01-21T15:32:04.740Z,101262.69
2018-01-21T15:34:31.012Z,101260.91
2018-01-21T15:36:57.252Z,101258.25
2018-01-21T15:39:23.448Z,101260.77
2018-01-21T15:41:50.023Z,101253.05
2018-01-21T15:44:16.420Z,101246.88
2018-01-21T15:46:42.700Z,101245.12
2018-01-21T15:49:08.877Z,101230.73
2018-01-21T15:51:35.080Z,101228.54
2018-01-21T15:54:01.365Z,101223.84
2018-01-21T15:56:28.101Z,101215.53
2018-01-21T15:58:54.312Z,101201.54
2018-01-21T16:01:20.543Z,101204.40
2018-01-21T16:03:46.734Z,101195.61
2018-01-21T16:06:13.041Z,101190.30
2018-01-21T16:08:39.370Z,101180.14
2018-01-21T16:11:05.659Z,101177.54
2018-01-21T16:13:31.894Z,101169.27
2018-01-21T16:15:58.521Z,101167.11
2018-01-21T16:18:24.819Z,101167.53
2018-01-21T16:20:51.122Z,101163.27
2018-01-21T16:23:17.316Z,101168.79
2018-01-21T16:25:43.575Z,101167.89
2018-01-21T16:28:10.102Z,101157.88
2018-01-21T16:30:36.288Z,101162.13
2018-01-21T16:33:02.535Z,101157.00
2018-01-21T16:35:28.752Z,101156.11
2018-01-21T16:41:03.404Z,101148.25
2018-01-21T16:43:29.724Z,101146.89
2018-01-21T16:45:55.927Z,101148.63
2018-01-21T16:48:22.258Z,101144.20
2018-01-21T16:50:48.895Z,101134.23
2018-01-21T16:53:15.063Z,101126.48
2018-01-21T16:55:41.488Z,101119.15
2018-01-21T16:58:07.712Z,101113.41
2018-01-21T17:00:33.887Z,101113.11
2018-01-21T17:03:00.043Z,101095.81
2018-01-21T17:05:27.422Z,101092.86
2018-01-21T17:07:53.626Z,101088.05
2018-01-21T17:10:19.801Z,101092.41
2018-01-21T17:12:46.315Z,101084.47
2018-01-21T17:15:12.600Z,101080.59
2018-01-21T17:17:38.860Z,101065.04
2018-01-21T17:20:05.023Z,101057.20
2018-01-21T17:22:31.309Z,101058.52
2018-01-21T17:24:57.461Z,101056.27
2018-01-21T17:27:23.718Z,101042.92
2018-01-21T17:29:49.911Z,101042.02
2018-01-21T17:32:16.089Z,101026.06
2018-01-21T17:34:42.704Z,101021.81
2018-01-21T17:37:08.970Z,101007.05
2018-01-21T17:39:35.233Z,101000.23
2018-01-21T17:42:01.584Z,101003.30
2018-01-21T17:44:27.911Z,101004.19
2018-01-21T17:46:54.144Z,101012.04
2018-01-21T17:49:20.331Z,101006.84
2018-01-21T17:51:47.541Z,100996.22
2018-01-21T17:54:13.703Z,100993.19
2018-01-21T17:56:39.986Z,100989.78
2018-01-21T17:59:06.243Z,100977.73
2018-01-21T18:01:32.442Z,100959.98
2018-01-21T18:03:58.753Z,100939.20
2018-01-21T18:06:24.969Z,100937.05
2018-01-21T18:08:51.182Z,100918.47
2018-01-21T18:11:17.471Z,100928.97
2018-01-21T18:13:43.746Z,100931.17
2018-01-21T18:16:10.011Z,100922.00
2018-01-21T18:18:36.230Z,100919.91
2018-01-21T18:21:02.419Z,100902.16
2018-01-21T18:23:30.013Z,100904.00
2018-01-21T18:25:56.271Z,100894.52
2018-01-21T18:28:22.480Z,100910.15
2018-01-21T18:30:48.679Z,100901.56
2018-01-21T18:33:14.854Z,100898.16
2018-01-21T18:35:41.112Z,100899.47
2018-01-21T18:38:07.329Z,100900.31
2018-01-21T18:40:33.636Z,100903.84
2018-01-21T18:42:59.979Z,100896.95
2018-01-21T18:45:26.237Z,100901.34
2018-01-21T18:47:52.591Z,100905.27
2018-01-21T18:50:18.791Z,100915.73
2018-01-21T18:52:44.977Z,100908.42
2018-01-21T18:55:11.161Z,100900.19
2018-01-21T18:57:37.478Z,100889.34
2018-01-21T19:00:03.797Z,100886.78
2018-01-21T19:02:30.149Z,100879.91
2018-01-21T19:04:56.340Z,100866.92
2018-01-21T19:07:22.673Z,100858.30
2018-01-21T19:09:49.058Z,100844.41
2018-01-21T19:12:15.243Z,100827.95
2018-01-21T19:14:41.616Z,100811.04
2018-01-21T19:17:07.879Z,100814.02
2018-01-21T19:19:34.111Z,100811.50
2018-01-21T19:22:00.322Z,100798.89
2018-01-21T19:24:26.582Z,100797.22
2018-01-21T19:26:52.844Z,100795.89
2018-01-21T19:29:19.074Z,100782.98
2018-01-21T19:31:45.345Z,100771.65
2018-01-21T19:34:12.833Z,100765.63
2018-01-21T19:36:39.145Z,100753.47
2018-01-21T19:39:20.293Z,100753.05
2018-01-21T19:41:50.394Z,100750.47
2018-01-21T19:44:17.611Z,100744.36
2018-01-21T19:46:43.936Z,100750.88
2018-01-21T19:49:10.131Z,100745.70
2018-01-21T19:51:36.365Z,100754.80
2018-01-21T19:54:02.671Z,100744.40
2018-01-21T19:56:28.929Z,100729.69
2018-01-21T19:58:55.202Z,100727.95
2018-01-21T20:01:21.488Z,100723.20
2018-01-21T20:03:47.676Z,100723.23
2018-01-21T20:06:14.149Z,100718.03
2018-01-21T20:08:40.472Z,100706.77
2018-01-21T20:11:06.656Z,100698.92
2018-01-21T20:13:33.008Z,100695.09
2018-01-21T20:15:59.358Z,100699.02
2018-01-21T20:18:25.906Z,100701.62
2018-01-21T20:20:52.144Z,100695.16
2018-01-21T20:23:18.386Z,100684.73
2018-01-21T20:25:44.622Z,100682.16
2018-01-21T20:28:10.877Z,100665.75
2018-01-21T20:30:38.889Z,100664.00
2018-01-21T20:33:05.150Z,100663.17
2018-01-21T20:35:31.379Z,100660.58
2018-01-21T20:37:57.692Z,100651.52
2018-01-21T20:40:23.939Z,100640.22
2018-01-21T20:42:50.174Z,100636.30
2018-01-21T20:45:16.528Z,100633.78
2018-01-21T20:47:42.811Z,100632.89
2018-01-21T20:50:09.003Z,100623.83
2018-01-21T20:52:41.436Z,100628.20
2018-01-21T20:55:07.732Z,100614.38
2018-01-21T20:57:33.986Z,100618.27
2018-01-21T21:00:00.259Z,100623.94
2018-01-21T21:02:26.513Z,100620.45
2018-01-21T21:04:52.701Z,100617.89
2018-01-21T21:07:18.955Z,100605.80
2018-01-21T21:09:45.135Z,100602.77
2018-01-21T21:12:11.379Z,100601.46
2018-01-21T21:14:37.638Z,100610.19
2018-01-21T21:17:03.949Z,100600.22
2018-01-21T21:19:30.192Z,100585.98
2018-01-21T21:21:56.365Z,100570.80
2018-01-21T21:24:22.632Z,100566.91
2018-01-21T21:26:48.985Z,100566.91
2018-01-21T21:29:15.283Z,100567.39
2018-01-21T21:31:41.631Z,100572.62
2018-01-21T21:34:07.897Z,100567.44
2018-01-21T21:36:34.187Z,100576.55
2018-01-21T21:39:00.439Z,100577.48
2018-01-21T21:41:26.663Z,100567.92
2018-01-21T21:43:52.909Z,100562.76
2018-01-21T21:46:19.282Z,100548.07
2018-01-21T21:48:45.513Z,100537.72
2018-01-21T21:51:11.718Z,100536.42
2018-01-21T21:53:37.876Z,100514.33
2018-01-21T21:56:04.085Z,100501.80
2018-01-21T21:58:30.326Z,100506.58
2018-01-21T22:00:56.536Z,100519.63
2018-01-21T22:03:22.709Z,100522.32
2018-01-21T22:05:48.906Z,100525.80
2018-01-21T22:08:15.201Z,100530.55
2018-01-21T22:10:41.686Z,100512.81
2018-01-21T22:13:07.891Z,100506.36
2018-01-21T22:15:34.184Z,100498.61
2018-01-21T22:18:00.415Z,100497.73
2018-01-21T22:20:26.579Z,100492.16
2018-01-21T22:22:52.736Z,100498.69
2018-01-21T22:25:18.936Z,100499.16
2018-01-21T22:27:45.328Z,100486.58
2018-01-21T22:30:11.522Z,100475.36
2018-01-21T22:32:37.685Z,100480.65
2018-01-21T22:35:03.902Z,100475.86
2018-01-21T22:37:30.113Z,100480.69
2018-01-21T22:39:56.276Z,100487.66
2018-01-21T22:42:22.574Z,100464.64
2018-01-21T22:44:48.891Z,100466.41
2018-01-21T22:47:15.129Z,100456.03
2018-01-21T22:49:41.298Z,100459.94
2018-01-21T22:52:07.555Z,100452.15
2018-01-21T22:54:33.728Z,100450.03
2018-01-21T22:56:59.939Z,100462.20
2018-01-21T22:59:26.198Z,100452.66
2018-01-21T23:01:52.381Z,100445.75
2018-01-21T23:04:18.596Z,100453.59
2018-01-21T23:06:44.851Z,100445.83
2018-01-21T23:09:11.111Z,100462.77
2018-01-21T23:11:37.257Z,100456.74
2018-01-21T23:14:03.466Z,100450.27
2018-01-21T23:16:29.673Z,100454.27
2018-01-21T23:18:55.985Z,100449.56
2018-01-21T23:21:22.144Z,100446.53
2018-01-21T23:23:48.333Z,100449.17
2018-01-21T23:26:14.536Z,100446.63
2018-01-21T23:28:40.829Z,100429.72
2018-01-21T23:31:06.982Z,100434.52
2018-01-21T23:33:33.122Z,100438.46
2018-01-21T23:35:59.314Z,100464.14
2018-01-21T23:38:25.682Z,100453.75
2018-01-21T23:40:51.888Z,100435.98
2018-01-21T23:43:18.033Z,100438.61
2018-01-21T23:45:44.249Z,100445.59
2018-01-21T23:48:11.714Z,100426.52
2018-01-21T23:50:37.867Z,100432.67
2018-01-21T23:53:04.003Z,100434.02
2018-01-21T23:55:30.261Z,100431.45
2018-01-21T23:57:56.472Z,100418.03
